Ewen, Michigan
Current Conditions -  °F | °C
As of 3:35 PM on Tuesday 27 Jan 2015 (Local Time) from KLNL Reporting Station
Overcast Overcast  
Wind Chill: 25°   Ceiling: 1500
Heat Index: 25°   Visibility: 10mi
Dew Point: 19°   Wind: 3mph
Humidity: 79%   Direction: 230°SW
Pressure: 30.15"   Gusts: NA
Location:  46.53°N, 89.28°W
Report Text: KLNL 272035Z AUTO 23003KT 10SM OVC015 M04/M07 A3015 RMK AO2 T10411072
Loading
Personal Weather Stations






























Interactive Weather Map New forecast layout! Learn more

10-Day Weather Forecast

Advertisements
Track Severe Weather on mobile